sensor_id;sensor_type;location;lat;lon;timestamp;P1;durP1;ratioP1;P2;durP2;ratioP2
77026;SDS011;65956;52.986;17.490;2023-02-10T00:01:25;20.30;;;9.60;;
77026;SDS011;65956;52.986;17.490;2023-02-10T00:03:54;18.80;;;8.70;;
77026;SDS011;65956;52.986;17.490;2023-02-10T00:06:25;21.00;;;8.60;;
77026;SDS011;65956;52.986;17.490;2023-02-10T00:08:54;20.60;;;9.40;;
77026;SDS011;65956;52.986;17.490;2023-02-10T00:11:26;18.10;;;8.80;;
77026;SDS011;65956;52.986;17.490;2023-02-10T00:14:13;19.70;;;7.40;;
77026;SDS011;65956;52.986;17.490;2023-02-10T00:16:42;17.80;;;8.10;;
77026;SDS011;65956;52.986;17.490;2023-02-10T00:19:10;18.90;;;7.80;;
77026;SDS011;65956;52.986;17.490;2023-02-10T00:21:37;21.60;;;10.20;;
77026;SDS011;65956;52.986;17.490;2023-02-10T00:24:05;20.50;;;8.50;;
77026;SDS011;65956;52.986;17.490;2023-02-10T00:26:32;19.40;;;8.70;;
77026;SDS011;65956;52.986;17.490;2023-02-10T00:29:00;18.90;;;8.40;;
77026;SDS011;65956;52.986;17.490;2023-02-10T00:31:27;21.20;;;10.30;;
77026;SDS011;65956;52.986;17.490;2023-02-10T00:33:54;18.60;;;7.90;;
77026;SDS011;65956;52.986;17.490;2023-02-10T00:36:21;17.90;;;8.00;;
77026;SDS011;65956;52.986;17.490;2023-02-10T00:38:52;18.50;;;7.20;;
77026;SDS011;65956;52.986;17.490;2023-02-10T00:41:20;18.80;;;7.80;;
77026;SDS011;65956;52.986;17.490;2023-02-10T00:43:48;20.60;;;9.60;;
77026;SDS011;65956;52.986;17.490;2023-02-10T00:46:18;18.80;;;8.60;;
77026;SDS011;65956;52.986;17.490;2023-02-10T00:48:47;21.00;;;8.90;;
77026;SDS011;65956;52.986;17.490;2023-02-10T00:51:16;21.30;;;10.20;;
77026;SDS011;65956;52.986;17.490;2023-02-10T00:53:44;21.20;;;9.50;;
77026;SDS011;65956;52.986;17.490;2023-02-10T00:56:11;20.30;;;8.80;;
77026;SDS011;65956;52.986;17.490;2023-02-10T00:58:38;20.20;;;9.30;;
77026;SDS011;65956;52.986;17.490;2023-02-10T01:01:06;18.30;;;7.50;;
77026;SDS011;65956;52.986;17.490;2023-02-10T01:03:34;20.80;;;9.10;;
77026;SDS011;65956;52.986;17.490;2023-02-10T01:06:01;20.30;;;9.10;;
77026;SDS011;65956;52.986;17.490;2023-02-10T01:08:29;18.00;;;8.70;;
77026;SDS011;65956;52.986;17.490;2023-02-10T01:11:00;17.70;;;8.60;;
77026;SDS011;65956;52.986;17.490;2023-02-10T01:13:29;17.90;;;8.20;;
77026;SDS011;65956;52.986;17.490;2023-02-10T01:15:57;16.90;;;7.50;;
77026;SDS011;65956;52.986;17.490;2023-02-10T01:18:24;19.50;;;9.00;;
77026;SDS011;65956;52.986;17.490;2023-02-10T01:20:51;18.40;;;7.40;;
77026;SDS011;65956;52.986;17.490;2023-02-10T01:23:20;17.20;;;8.30;;
77026;SDS011;65956;52.986;17.490;2023-02-10T01:25:47;13.80;;;5.90;;
77026;SDS011;65956;52.986;17.490;2023-02-10T01:28:16;16.70;;;8.00;;
77026;SDS011;65956;52.986;17.490;2023-02-10T01:30:45;20.80;;;9.70;;
77026;SDS011;65956;52.986;17.490;2023-02-10T01:33:13;17.00;;;8.60;;
77026;SDS011;65956;52.986;17.490;2023-02-10T01:35:40;18.60;;;8.60;;
77026;SDS011;65956;52.986;17.490;2023-02-10T01:38:07;17.10;;;8.20;;
77026;SDS011;65956;52.986;17.490;2023-02-10T01:40:34;17.20;;;7.80;;
77026;SDS011;65956;52.986;17.490;2023-02-10T01:43:02;15.00;;;6.20;;
77026;SDS011;65956;52.986;17.490;2023-02-10T01:45:37;13.70;;;6.30;;
77026;SDS011;65956;52.986;17.490;2023-02-10T01:48:05;17.00;;;7.40;;
77026;SDS011;65956;52.986;17.490;2023-02-10T01:50:36;15.70;;;7.10;;
77026;SDS011;65956;52.986;17.490;2023-02-10T01:53:08;17.60;;;8.40;;
77026;SDS011;65956;52.986;17.490;2023-02-10T01:55:39;16.50;;;7.40;;
77026;SDS011;65956;52.986;17.490;2023-02-10T01:58:12;17.10;;;7.60;;
77026;SDS011;65956;52.986;17.490;2023-02-10T02:00:42;16.10;;;7.10;;
77026;SDS011;65956;52.986;17.490;2023-02-10T02:03:09;18.40;;;8.30;;
77026;SDS011;65956;52.986;17.490;2023-02-10T02:05:38;16.00;;;7.80;;
77026;SDS011;65956;52.986;17.490;2023-02-10T02:08:12;14.20;;;7.00;;
77026;SDS011;65956;52.986;17.490;2023-02-10T02:13:16;20.00;;;8.80;;
77026;SDS011;65956;52.986;17.490;2023-02-10T02:19:36;19.80;;;9.30;;
77026;SDS011;65956;52.986;17.490;2023-02-10T02:32:42;20.50;;;9.70;;
77026;SDS011;65956;52.986;17.490;2023-02-10T02:35:17;22.00;;;9.00;;
77026;SDS011;65956;52.986;17.490;2023-02-10T02:37:52;17.40;;;7.90;;
77026;SDS011;65956;52.986;17.490;2023-02-10T02:43:07;18.10;;;8.60;;
77026;SDS011;65956;52.986;17.490;2023-02-10T02:45:41;15.40;;;6.10;;
77026;SDS011;65956;52.986;17.490;2023-02-10T02:48:30;15.80;;;7.20;;
77026;SDS011;65956;52.986;17.490;2023-02-10T02:54:11;20.50;;;9.00;;
77026;SDS011;65956;52.986;17.490;2023-02-10T02:57:07;18.40;;;8.50;;
77026;SDS011;65956;52.986;17.490;2023-02-10T03:02:14;16.10;;;6.70;;
77026;SDS011;65956;52.986;17.490;2023-02-10T03:04:46;17.20;;;8.20;;
77026;SDS011;65956;52.986;17.490;2023-02-10T03:07:14;22.00;;;9.30;;
77026;SDS011;65956;52.986;17.490;2023-02-10T03:09:42;18.10;;;8.90;;
77026;SDS011;65956;52.986;17.490;2023-02-10T03:12:10;13.90;;;6.10;;
77026;SDS011;65956;52.986;17.490;2023-02-10T03:14:39;21.80;;;8.20;;
77026;SDS011;65956;52.986;17.490;2023-02-10T03:17:06;18.60;;;7.60;;
77026;SDS011;65956;52.986;17.490;2023-02-10T03:19:33;21.00;;;9.40;;
77026;SDS011;65956;52.986;17.490;2023-02-10T03:22:01;17.50;;;8.40;;
77026;SDS011;65956;52.986;17.490;2023-02-10T03:24:28;22.10;;;9.30;;
77026;SDS011;65956;52.986;17.490;2023-02-10T03:26:55;14.00;;;7.10;;
77026;SDS011;65956;52.986;17.490;2023-02-10T03:29:22;19.60;;;9.00;;
77026;SDS011;65956;52.986;17.490;2023-02-10T03:31:50;19.50;;;9.20;;
77026;SDS011;65956;52.986;17.490;2023-02-10T03:34:17;18.90;;;8.50;;
77026;SDS011;65956;52.986;17.490;2023-02-10T03:36:45;19.90;;;9.00;;
77026;SDS011;65956;52.986;17.490;2023-02-10T03:39:12;17.20;;;8.80;;
77026;SDS011;65956;52.986;17.490;2023-02-10T03:41:39;19.50;;;8.50;;
77026;SDS011;65956;52.986;17.490;2023-02-10T03:44:06;19.00;;;9.00;;
77026;SDS011;65956;52.986;17.490;2023-02-10T03:46:33;21.40;;;8.80;;
77026;SDS011;65956;52.986;17.490;2023-02-10T03:49:03;21.70;;;10.60;;
77026;SDS011;65956;52.986;17.490;2023-02-10T03:51:31;22.50;;;9.70;;
77026;SDS011;65956;52.986;17.490;2023-02-10T03:53:59;16.20;;;8.60;;
77026;SDS011;65956;52.986;17.490;2023-02-10T03:56:26;19.20;;;9.00;;
77026;SDS011;65956;52.986;17.490;2023-02-10T03:58:53;16.30;;;7.90;;
77026;SDS011;65956;52.986;17.490;2023-02-10T04:01:21;19.60;;;9.30;;
77026;SDS011;65956;52.986;17.490;2023-02-10T04:03:48;20.60;;;9.20;;
77026;SDS011;65956;52.986;17.490;2023-02-10T04:06:15;19.90;;;8.40;;
77026;SDS011;65956;52.986;17.490;2023-02-10T04:08:42;16.60;;;6.90;;
77026;SDS011;65956;52.986;17.490;2023-02-10T04:11:09;19.40;;;8.00;;
77026;SDS011;65956;52.986;17.490;2023-02-10T04:13:38;17.60;;;8.20;;
77026;SDS011;65956;52.986;17.490;2023-02-10T04:18:34;20.70;;;9.10;;
77026;SDS011;65956;52.986;17.490;2023-02-10T04:21:03;20.50;;;9.40;;
77026;SDS011;65956;52.986;17.490;2023-02-10T04:23:30;20.60;;;8.20;;
77026;SDS011;65956;52.986;17.490;2023-02-10T04:25:58;25.00;;;8.90;;
77026;SDS011;65956;52.986;17.490;2023-02-10T04:28:26;20.50;;;9.70;;
77026;SDS011;65956;52.986;17.490;2023-02-10T04:30:54;15.50;;;7.50;;
77026;SDS011;65956;52.986;17.490;2023-02-10T04:33:24;15.60;;;6.50;;
77026;SDS011;65956;52.986;17.490;2023-02-10T04:35:52;22.50;;;9.60;;
77026;SDS011;65956;52.986;17.490;2023-02-10T04:38:21;20.60;;;9.30;;
77026;SDS011;65956;52.986;17.490;2023-02-10T04:40:49;19.10;;;8.90;;
77026;SDS011;65956;52.986;17.490;2023-02-10T04:43:16;20.30;;;9.80;;
77026;SDS011;65956;52.986;17.490;2023-02-10T04:45:43;19.30;;;8.90;;
77026;SDS011;65956;52.986;17.490;2023-02-10T04:48:10;19.40;;;9.70;;
77026;SDS011;65956;52.986;17.490;2023-02-10T04:50:38;21.00;;;9.90;;
77026;SDS011;65956;52.986;17.490;2023-02-10T04:53:05;17.30;;;7.30;;
77026;SDS011;65956;52.986;17.490;2023-02-10T04:55:33;23.30;;;8.90;;
77026;SDS011;65956;52.986;17.490;2023-02-10T04:58:01;24.50;;;10.40;;
77026;SDS011;65956;52.986;17.490;2023-02-10T05:00:28;21.60;;;9.90;;
77026;SDS011;65956;52.986;17.490;2023-02-10T05:02:55;22.80;;;9.20;;
77026;SDS011;65956;52.986;17.490;2023-02-10T05:05:23;24.20;;;9.90;;
77026;SDS011;65956;52.986;17.490;2023-02-10T05:07:52;16.80;;;7.50;;
77026;SDS011;65956;52.986;17.490;2023-02-10T05:10:20;23.70;;;10.10;;
77026;SDS011;65956;52.986;17.490;2023-02-10T05:12:48;18.00;;;9.20;;
77026;SDS011;65956;52.986;17.490;2023-02-10T05:15:15;20.90;;;10.30;;
77026;SDS011;65956;52.986;17.490;2023-02-10T05:17:43;17.10;;;7.40;;
77026;SDS011;65956;52.986;17.490;2023-02-10T05:20:10;19.00;;;8.80;;
77026;SDS011;65956;52.986;17.490;2023-02-10T05:22:38;19.40;;;8.10;;
77026;SDS011;65956;52.986;17.490;2023-02-10T05:25:06;22.60;;;10.50;;
77026;SDS011;65956;52.986;17.490;2023-02-10T05:27:35;19.70;;;9.50;;
77026;SDS011;65956;52.986;17.490;2023-02-10T05:30:04;19.10;;;9.10;;
77026;SDS011;65956;52.986;17.490;2023-02-10T05:32:33;21.10;;;10.20;;
77026;SDS011;65956;52.986;17.490;2023-02-10T05:35:00;21.90;;;10.30;;
77026;SDS011;65956;52.986;17.490;2023-02-10T05:37:27;23.10;;;8.50;;
77026;SDS011;65956;52.986;17.490;2023-02-10T05:39:54;25.30;;;11.00;;
77026;SDS011;65956;52.986;17.490;2023-02-10T05:42:22;23.70;;;9.90;;
77026;SDS011;65956;52.986;17.490;2023-02-10T05:44:49;23.10;;;10.40;;
77026;SDS011;65956;52.986;17.490;2023-02-10T05:47:16;22.20;;;9.80;;
77026;SDS011;65956;52.986;17.490;2023-02-10T05:49:43;21.20;;;9.00;;
77026;SDS011;65956;52.986;17.490;2023-02-10T05:52:11;25.00;;;10.60;;
77026;SDS011;65956;52.986;17.490;2023-02-10T05:54:38;25.10;;;11.30;;
77026;SDS011;65956;52.986;17.490;2023-02-10T05:57:07;25.80;;;11.90;;
77026;SDS011;65956;52.986;17.490;2023-02-10T05:59:34;28.00;;;10.30;;
77026;SDS011;65956;52.986;17.490;2023-02-10T06:02:01;26.90;;;11.10;;
77026;SDS011;65956;52.986;17.490;2023-02-10T06:04:29;20.90;;;8.50;;
77026;SDS011;65956;52.986;17.490;2023-02-10T06:06:56;25.60;;;12.00;;
77026;SDS011;65956;52.986;17.490;2023-02-10T06:09:23;23.10;;;9.10;;
77026;SDS011;65956;52.986;17.490;2023-02-10T06:11:50;23.70;;;10.60;;
77026;SDS011;65956;52.986;17.490;2023-02-10T06:14:19;26.70;;;11.20;;
77026;SDS011;65956;52.986;17.490;2023-02-10T06:16:46;21.60;;;9.40;;
77026;SDS011;65956;52.986;17.490;2023-02-10T06:19:14;22.60;;;9.40;;
77026;SDS011;65956;52.986;17.490;2023-02-10T06:21:41;23.80;;;10.20;;
77026;SDS011;65956;52.986;17.490;2023-02-10T06:24:08;20.10;;;9.30;;
77026;SDS011;65956;52.986;17.490;2023-02-10T06:26:37;23.20;;;9.70;;
77026;SDS011;65956;52.986;17.490;2023-02-10T06:29:05;25.60;;;11.00;;
77026;SDS011;65956;52.986;17.490;2023-02-10T06:31:33;20.70;;;10.30;;
77026;SDS011;65956;52.986;17.490;2023-02-10T06:34:00;21.60;;;9.90;;
77026;SDS011;65956;52.986;17.490;2023-02-10T06:36:28;22.70;;;10.50;;
77026;SDS011;65956;52.986;17.490;2023-02-10T06:38:55;24.80;;;9.60;;
77026;SDS011;65956;52.986;17.490;2023-02-10T06:41:22;24.80;;;9.90;;
77026;SDS011;65956;52.986;17.490;2023-02-10T06:43:49;24.80;;;9.90;;
77026;SDS011;65956;52.986;17.490;2023-02-10T06:46:17;23.90;;;10.50;;
77026;SDS011;65956;52.986;17.490;2023-02-10T06:48:45;22.70;;;9.70;;
77026;SDS011;65956;52.986;17.490;2023-02-10T06:51:12;24.90;;;11.00;;
77026;SDS011;65956;52.986;17.490;2023-02-10T06:53:40;25.50;;;10.60;;
77026;SDS011;65956;52.986;17.490;2023-02-10T06:56:09;23.40;;;9.60;;
77026;SDS011;65956;52.986;17.490;2023-02-10T06:58:37;26.00;;;10.00;;
77026;SDS011;65956;52.986;17.490;2023-02-10T07:01:08;22.20;;;9.90;;
77026;SDS011;65956;52.986;17.490;2023-02-10T07:03:36;22.80;;;9.40;;
77026;SDS011;65956;52.986;17.490;2023-02-10T07:06:05;21.50;;;9.10;;
77026;SDS011;65956;52.986;17.490;2023-02-10T07:08:32;21.30;;;9.50;;
77026;SDS011;65956;52.986;17.490;2023-02-10T07:10:59;26.10;;;11.50;;
77026;SDS011;65956;52.986;17.490;2023-02-10T07:13:27;20.50;;;9.90;;
77026;SDS011;65956;52.986;17.490;2023-02-10T07:15:54;24.20;;;10.20;;
77026;SDS011;65956;52.986;17.490;2023-02-10T07:18:21;24.40;;;10.60;;
77026;SDS011;65956;52.986;17.490;2023-02-10T07:20:48;29.50;;;11.80;;
77026;SDS011;65956;52.986;17.490;2023-02-10T07:23:16;28.50;;;10.90;;
77026;SDS011;65956;52.986;17.490;2023-02-10T07:25:43;40.70;;;12.90;;
77026;SDS011;65956;52.986;17.490;2023-02-10T07:28:11;38.00;;;12.30;;
77026;SDS011;65956;52.986;17.490;2023-02-10T07:30:38;25.80;;;10.10;;
77026;SDS011;65956;52.986;17.490;2023-02-10T07:33:05;32.60;;;13.70;;
77026;SDS011;65956;52.986;17.490;2023-02-10T07:35:33;28.40;;;10.50;;
77026;SDS011;65956;52.986;17.490;2023-02-10T07:38:02;31.90;;;12.10;;
77026;SDS011;65956;52.986;17.490;2023-02-10T07:40:29;197.70;;;61.20;;
77026;SDS011;65956;52.986;17.490;2023-02-10T07:42:56;50.50;;;22.80;;
77026;SDS011;65956;52.986;17.490;2023-02-10T07:45:56;89.00;;;34.50;;
77026;SDS011;65956;52.986;17.490;2023-02-10T07:48:23;71.00;;;29.00;;
77026;SDS011;65956;52.986;17.490;2023-02-10T07:50:51;52.10;;;21.40;;
77026;SDS011;65956;52.986;17.490;2023-02-10T07:53:19;89.50;;;35.20;;
77026;SDS011;65956;52.986;17.490;2023-02-10T07:55:47;52.40;;;21.80;;
77026;SDS011;65956;52.986;17.490;2023-02-10T07:58:15;64.40;;;26.60;;
77026;SDS011;65956;52.986;17.490;2023-02-10T08:00:42;67.40;;;25.70;;
77026;SDS011;65956;52.986;17.490;2023-02-10T08:03:13;70.10;;;27.50;;
77026;SDS011;65956;52.986;17.490;2023-02-10T08:08:09;51.10;;;24.90;;
77026;SDS011;65956;52.986;17.490;2023-02-10T08:10:37;29.50;;;12.70;;
77026;SDS011;65956;52.986;17.490;2023-02-10T08:13:05;30.60;;;13.10;;
77026;SDS011;65956;52.986;17.490;2023-02-10T08:15:33;33.60;;;16.30;;
77026;SDS011;65956;52.986;17.490;2023-02-10T08:18:00;28.50;;;12.20;;
77026;SDS011;65956;52.986;17.490;2023-02-10T08:20:28;33.00;;;13.80;;
77026;SDS011;65956;52.986;17.490;2023-02-10T08:22:55;35.60;;;15.50;;
77026;SDS011;65956;52.986;17.490;2023-02-10T08:25:23;32.10;;;15.00;;
77026;SDS011;65956;52.986;17.490;2023-02-10T08:27:50;30.50;;;12.60;;
77026;SDS011;65956;52.986;17.490;2023-02-10T08:30:18;22.50;;;10.60;;
77026;SDS011;65956;52.986;17.490;2023-02-10T08:32:45;34.20;;;16.80;;
77026;SDS011;65956;52.986;17.490;2023-02-10T08:35:12;38.10;;;16.30;;
77026;SDS011;65956;52.986;17.490;2023-02-10T08:37:39;31.60;;;13.70;;
77026;SDS011;65956;52.986;17.490;2023-02-10T08:40:06;31.00;;;13.90;;
77026;SDS011;65956;52.986;17.490;2023-02-10T08:42:34;38.60;;;16.10;;
77026;SDS011;65956;52.986;17.490;2023-02-10T08:45:01;33.60;;;14.70;;
77026;SDS011;65956;52.986;17.490;2023-02-10T08:47:30;34.00;;;16.10;;
77026;SDS011;65956;52.986;17.490;2023-02-10T08:50:00;25.50;;;12.20;;
77026;SDS011;65956;52.986;17.490;2023-02-10T08:52:27;31.60;;;13.50;;
77026;SDS011;65956;52.986;17.490;2023-02-10T08:54:54;33.90;;;15.10;;
77026;SDS011;65956;52.986;17.490;2023-02-10T08:57:23;28.80;;;13.90;;
77026;SDS011;65956;52.986;17.490;2023-02-10T08:59:50;30.70;;;12.80;;
77026;SDS011;65956;52.986;17.490;2023-02-10T09:02:18;31.60;;;14.90;;
77026;SDS011;65956;52.986;17.490;2023-02-10T09:04:45;33.70;;;13.80;;
77026;SDS011;65956;52.986;17.490;2023-02-10T09:07:13;42.20;;;17.70;;
77026;SDS011;65956;52.986;17.490;2023-02-10T09:09:41;63.60;;;23.80;;
77026;SDS011;65956;52.986;17.490;2023-02-10T09:12:10;42.60;;;15.90;;
77026;SDS011;65956;52.986;17.490;2023-02-10T09:14:38;73.80;;;26.90;;
77026;SDS011;65956;52.986;17.490;2023-02-10T09:17:07;119.00;;;38.90;;
77026;SDS011;65956;52.986;17.490;2023-02-10T09:19:35;82.50;;;26.50;;
77026;SDS011;65956;52.986;17.490;2023-02-10T09:22:03;104.70;;;39.30;;
77026;SDS011;65956;52.986;17.490;2023-02-10T09:24:32;57.80;;;24.00;;
77026;SDS011;65956;52.986;17.490;2023-02-10T09:27:00;57.60;;;25.40;;
77026;SDS011;65956;52.986;17.490;2023-02-10T09:29:27;66.10;;;27.80;;
77026;SDS011;65956;52.986;17.490;2023-02-10T09:31:54;58.40;;;26.20;;
77026;SDS011;65956;52.986;17.490;2023-02-10T09:34:23;42.20;;;20.30;;
77026;SDS011;65956;52.986;17.490;2023-02-10T09:36:51;53.20;;;21.30;;
77026;SDS011;65956;52.986;17.490;2023-02-10T09:39:18;37.50;;;14.60;;
77026;SDS011;65956;52.986;17.490;2023-02-10T09:41:48;34.80;;;17.00;;
77026;SDS011;65956;52.986;17.490;2023-02-10T09:44:35;36.20;;;17.20;;
77026;SDS011;65956;52.986;17.490;2023-02-10T09:47:23;38.40;;;17.80;;
77026;SDS011;65956;52.986;17.490;2023-02-10T09:55:13;41.60;;;15.20;;
77026;SDS011;65956;52.986;17.490;2023-02-10T10:01:01;32.60;;;14.20;;
77026;SDS011;65956;52.986;17.490;2023-02-10T10:04:20;37.10;;;16.20;;
77026;SDS011;65956;52.986;17.490;2023-02-10T10:06:34;35.90;;;15.50;;
77026;SDS011;65956;52.986;17.490;2023-02-10T10:14:56;35.60;;;14.60;;
77026;SDS011;65956;52.986;17.490;2023-02-10T10:17:10;40.60;;;16.00;;
77026;SDS011;65956;52.986;17.490;2023-02-10T10:30:45;104.40;;;36.70;;
77026;SDS011;65956;52.986;17.490;2023-02-10T10:35:44;43.70;;;18.00;;
77026;SDS011;65956;52.986;17.490;2023-02-10T10:38:16;49.60;;;22.50;;
77026;SDS011;65956;52.986;17.490;2023-02-10T10:40:49;31.00;;;14.90;;
77026;SDS011;65956;52.986;17.490;2023-02-10T10:43:27;39.50;;;16.00;;
77026;SDS011;65956;52.986;17.490;2023-02-10T10:45:59;38.60;;;17.00;;
77026;SDS011;65956;52.986;17.490;2023-02-10T10:48:32;32.90;;;15.50;;
77026;SDS011;65956;52.986;17.490;2023-02-10T10:51:03;30.10;;;13.50;;
77026;SDS011;65956;52.986;17.490;2023-02-10T10:53:49;33.80;;;15.10;;
77026;SDS011;65956;52.986;17.490;2023-02-10T10:56:30;34.80;;;14.40;;
77026;SDS011;65956;52.986;17.490;2023-02-10T11:02:13;32.90;;;13.70;;
77026;SDS011;65956;52.986;17.490;2023-02-10T11:04:42;29.80;;;11.80;;
77026;SDS011;65956;52.986;17.490;2023-02-10T11:07:18;26.50;;;10.10;;
77026;SDS011;65956;52.986;17.490;2023-02-10T11:09:54;33.40;;;15.70;;
77026;SDS011;65956;52.986;17.490;2023-02-10T11:12:36;35.10;;;14.30;;
77026;SDS011;65956;52.986;17.490;2023-02-10T11:17:52;36.50;;;14.50;;
77026;SDS011;65956;52.986;17.490;2023-02-10T11:20:26;34.50;;;15.40;;
77026;SDS011;65956;52.986;17.490;2023-02-10T11:23:00;36.50;;;14.10;;
77026;SDS011;65956;52.986;17.490;2023-02-10T11:25:35;56.10;;;22.70;;
77026;SDS011;65956;52.986;17.490;2023-02-10T11:28:04;105.40;;;38.00;;
77026;SDS011;65956;52.986;17.490;2023-02-10T11:30:35;60.70;;;22.50;;
77026;SDS011;65956;52.986;17.490;2023-02-10T11:33:04;69.30;;;25.80;;
77026;SDS011;65956;52.986;17.490;2023-02-10T11:35:33;46.30;;;20.20;;
77026;SDS011;65956;52.986;17.490;2023-02-10T11:38:02;60.90;;;21.80;;
77026;SDS011;65956;52.986;17.490;2023-02-10T11:43:18;68.00;;;26.40;;
77026;SDS011;65956;52.986;17.490;2023-02-10T11:45:53;62.90;;;21.60;;
77026;SDS011;65956;52.986;17.490;2023-02-10T11:48:23;66.20;;;23.80;;
77026;SDS011;65956;52.986;17.490;2023-02-10T11:51:06;34.40;;;14.40;;
77026;SDS011;65956;52.986;17.490;2023-02-10T11:53:43;37.90;;;16.20;;
77026;SDS011;65956;52.986;17.490;2023-02-10T11:56:18;44.20;;;18.20;;
77026;SDS011;65956;52.986;17.490;2023-02-10T11:59:54;44.10;;;18.60;;
77026;SDS011;65956;52.986;17.490;2023-02-10T12:02:44;40.20;;;15.40;;
77026;SDS011;65956;52.986;17.490;2023-02-10T12:05:35;40.30;;;18.30;;
77026;SDS011;65956;52.986;17.490;2023-02-10T12:23:16;77.40;;;25.70;;
77026;SDS011;65956;52.986;17.490;2023-02-10T12:26:08;130.40;;;35.50;;
77026;SDS011;65956;52.986;17.490;2023-02-10T12:37:15;142.70;;;41.30;;
77026;SDS011;65956;52.986;17.490;2023-02-10T12:40:12;103.40;;;34.70;;
77026;SDS011;65956;52.986;17.490;2023-02-10T12:47:51;161.30;;;59.70;;
77026;SDS011;65956;52.986;17.490;2023-02-10T12:50:57;79.90;;;33.10;;
77026;SDS011;65956;52.986;17.490;2023-02-10T12:53:55;135.50;;;57.50;;
77026;SDS011;65956;52.986;17.490;2023-02-10T12:56:27;134.10;;;57.30;;
77026;SDS011;65956;52.986;17.490;2023-02-10T12:59:10;113.40;;;51.60;;
77026;SDS011;65956;52.986;17.490;2023-02-10T13:01:46;101.40;;;52.50;;
77026;SDS011;65956;52.986;17.490;2023-02-10T13:04:26;65.20;;;33.40;;
77026;SDS011;65956;52.986;17.490;2023-02-10T13:06:59;87.10;;;48.40;;
77026;SDS011;65956;52.986;17.490;2023-02-10T13:14:33;101.60;;;49.40;;
77026;SDS011;65956;52.986;17.490;2023-02-10T13:17:03;51.20;;;22.30;;
77026;SDS011;65956;52.986;17.490;2023-02-10T13:36:17;39.60;;;17.60;;
77026;SDS011;65956;52.986;17.490;2023-02-10T13:39:02;36.30;;;17.90;;
77026;SDS011;65956;52.986;17.490;2023-02-10T13:41:43;36.10;;;15.40;;
77026;SDS011;65956;52.986;17.490;2023-02-10T13:44:18;38.00;;;16.20;;
77026;SDS011;65956;52.986;17.490;2023-02-10T13:47:33;39.20;;;17.20;;
77026;SDS011;65956;52.986;17.490;2023-02-10T13:50:26;36.30;;;15.00;;
77026;SDS011;65956;52.986;17.490;2023-02-10T13:52:54;37.30;;;16.00;;
77026;SDS011;65956;52.986;17.490;2023-02-10T13:56:01;32.00;;;13.30;;
77026;SDS011;65956;52.986;17.490;2023-02-10T13:58:23;36.30;;;15.30;;
77026;SDS011;65956;52.986;17.490;2023-02-10T14:00:54;32.00;;;14.40;;
77026;SDS011;65956;52.986;17.490;2023-02-10T14:03:24;36.10;;;17.30;;
77026;SDS011;65956;52.986;17.490;2023-02-10T14:06:07;29.60;;;11.40;;
77026;SDS011;65956;52.986;17.490;2023-02-10T14:08:40;44.40;;;17.50;;
77026;SDS011;65956;52.986;17.490;2023-02-10T14:14:15;30.40;;;13.60;;
77026;SDS011;65956;52.986;17.490;2023-02-10T14:19:40;43.10;;;18.40;;
77026;SDS011;65956;52.986;17.490;2023-02-10T14:22:23;42.80;;;17.50;;
77026;SDS011;65956;52.986;17.490;2023-02-10T14:25:02;39.00;;;14.10;;
77026;SDS011;65956;52.986;17.490;2023-02-10T14:27:40;45.60;;;18.40;;
77026;SDS011;65956;52.986;17.490;2023-02-10T14:30:21;40.90;;;16.20;;
77026;SDS011;65956;52.986;17.490;2023-02-10T14:32:53;47.50;;;20.30;;
77026;SDS011;65956;52.986;17.490;2023-02-10T14:35:22;42.10;;;18.80;;
77026;SDS011;65956;52.986;17.490;2023-02-10T14:37:52;55.40;;;21.20;;
77026;SDS011;65956;52.986;17.490;2023-02-10T14:40:25;69.60;;;26.30;;
77026;SDS011;65956;52.986;17.490;2023-02-10T14:45:26;117.80;;;35.10;;
77026;SDS011;65956;52.986;17.490;2023-02-10T14:47:55;106.10;;;36.20;;
77026;SDS011;65956;52.986;17.490;2023-02-10T14:50:27;69.10;;;26.80;;
77026;SDS011;65956;52.986;17.490;2023-02-10T14:52:57;101.60;;;42.20;;
77026;SDS011;65956;52.986;17.490;2023-02-10T14:55:31;50.40;;;21.10;;
77026;SDS011;65956;52.986;17.490;2023-02-10T14:58:12;134.30;;;48.40;;
77026;SDS011;65956;52.986;17.490;2023-02-10T15:00:41;92.20;;;35.70;;
77026;SDS011;65956;52.986;17.490;2023-02-10T15:03:46;43.50;;;19.00;;
77026;SDS011;65956;52.986;17.490;2023-02-10T15:06:16;38.40;;;14.20;;
77026;SDS011;65956;52.986;17.490;2023-02-10T15:08:51;43.40;;;18.10;;
77026;SDS011;65956;52.986;17.490;2023-02-10T15:11:43;94.90;;;36.00;;
77026;SDS011;65956;52.986;17.490;2023-02-10T15:14:35;55.10;;;26.90;;
77026;SDS011;65956;52.986;17.490;2023-02-10T15:17:13;52.00;;;19.70;;
77026;SDS011;65956;52.986;17.490;2023-02-10T15:19:57;63.00;;;25.00;;
77026;SDS011;65956;52.986;17.490;2023-02-10T15:22:34;60.90;;;24.30;;
77026;SDS011;65956;52.986;17.490;2023-02-10T15:27:51;62.50;;;22.60;;
77026;SDS011;65956;52.986;17.490;2023-02-10T15:30:23;87.10;;;29.90;;
77026;SDS011;65956;52.986;17.490;2023-02-10T15:35:22;58.10;;;26.40;;
77026;SDS011;65956;52.986;17.490;2023-02-10T15:37:50;60.00;;;23.60;;
77026;SDS011;65956;52.986;17.490;2023-02-10T15:40:24;65.10;;;27.70;;
77026;SDS011;65956;52.986;17.490;2023-02-10T15:42:57;54.40;;;24.70;;
77026;SDS011;65956;52.986;17.490;2023-02-10T15:45:29;77.20;;;32.70;;
77026;SDS011;65956;52.986;17.490;2023-02-10T15:48:01;44.80;;;22.40;;
77026;SDS011;65956;52.986;17.490;2023-02-10T15:50:36;47.40;;;23.30;;
77026;SDS011;65956;52.986;17.490;2023-02-10T15:53:05;47.80;;;21.20;;
77026;SDS011;65956;52.986;17.490;2023-02-10T15:55:40;31.80;;;13.60;;
77026;SDS011;65956;52.986;17.490;2023-02-10T15:58:10;49.10;;;19.50;;
77026;SDS011;65956;52.986;17.490;2023-02-10T16:00:38;50.20;;;21.70;;
77026;SDS011;65956;52.986;17.490;2023-02-10T16:03:07;64.10;;;31.80;;
77026;SDS011;65956;52.986;17.490;2023-02-10T16:05:36;70.10;;;27.10;;
77026;SDS011;65956;52.986;17.490;2023-02-10T16:08:29;50.90;;;21.40;;
77026;SDS011;65956;52.986;17.490;2023-02-10T16:10:57;45.80;;;21.20;;
77026;SDS011;65956;52.986;17.490;2023-02-10T16:13:25;54.80;;;22.70;;
77026;SDS011;65956;52.986;17.490;2023-02-10T16:15:52;48.90;;;21.30;;
77026;SDS011;65956;52.986;17.490;2023-02-10T16:18:21;44.90;;;20.00;;
77026;SDS011;65956;52.986;17.490;2023-02-10T16:23:21;47.30;;;19.70;;
77026;SDS011;65956;52.986;17.490;2023-02-10T16:25:50;42.80;;;20.30;;
77026;SDS011;65956;52.986;17.490;2023-02-10T16:28:19;43.20;;;18.40;;
77026;SDS011;65956;52.986;17.490;2023-02-10T16:30:47;43.30;;;18.60;;
77026;SDS011;65956;52.986;17.490;2023-02-10T16:33:16;42.70;;;18.70;;
77026;SDS011;65956;52.986;17.490;2023-02-10T16:35:45;44.60;;;19.00;;
77026;SDS011;65956;52.986;17.490;2023-02-10T16:38:13;41.30;;;18.30;;
77026;SDS011;65956;52.986;17.490;2023-02-10T16:40:41;46.30;;;18.40;;
77026;SDS011;65956;52.986;17.490;2023-02-10T16:43:10;38.50;;;18.60;;
77026;SDS011;65956;52.986;17.490;2023-02-10T16:45:39;40.20;;;16.30;;
77026;SDS011;65956;52.986;17.490;2023-02-10T16:48:08;38.00;;;16.60;;
77026;SDS011;65956;52.986;17.490;2023-02-10T16:50:42;46.90;;;20.40;;